Time;durP1;ratioP1;P1;durP2;ratioP2;P2;SDS_P1;SDS_P2;PMS_P1;PMS_P2;Temp;Humidity;BMP_temperature;BMP_pressure;BME280_temperature;BME280_humidity;BME280_pressure;Samples;Min_cycle;Max_cycle;Signal;HPM_P1;HPM_P2
2022/04/19 00:00:48;;;;;;;;;;;;;;;6.89;100.00;101527.44;2615394;31;20400;-48
2022/04/19 00:03:17;;;;;;;;;;;;;;;6.82;100.00;101532.31;2614795;36;20034;-49
2022/04/19 00:05:46;;;;;;;;;;;;;;;6.84;100.00;101528.56;2615265;36;19950;-51
2022/04/19 00:08:15;;;;;;;;;;;;;;;6.87;100.00;101524.00;2615437;36;20075;-54
2022/04/19 00:10:43;;;;;;;;;;;;;;;6.88;100.00;101521.25;2615790;36;19967;-48
2022/04/19 00:13:12;;;;;;;;;;;;;;;6.82;100.00;101521.63;2615390;31;19990;-54
2022/04/19 00:15:41;;;;;;;;;;;;;;;6.80;100.00;101524.41;2615218;36;19997;-48
2022/04/19 00:18:12;;;;;;;;;;;;;;;6.80;100.00;101526.19;2615534;36;20328;-53
2022/04/19 00:20:42;;;;;;;;;;;;;;;6.79;100.00;101525.34;2610685;36;20038;-52
2022/04/19 00:23:12;;;;;;;;;;;;;;;6.84;100.00;101525.06;2615497;36;19951;-50
2022/04/19 00:25:41;;;;;;;;;;;;;;;6.90;100.00;101523.81;2615477;36;19951;-55
2022/04/19 00:28:09;;;;;;;;;;;;;;;6.90;100.00;101518.47;2614906;36;20186;-51
2022/04/19 00:30:37;;;;;;;;;;;;;;;6.87;100.00;101519.50;2615738;36;19950;-53
2022/04/19 00:33:05;;;;;;;;;;;;;;;6.86;100.00;101515.13;2615031;36;20041;-51
2022/04/19 00:35:36;;;;;;;;;;;;;;;6.86;100.00;101511.56;2614320;36;20513;-49
2022/04/19 00:38:04;;;;;;;;;;;;;;;6.89;100.00;101517.63;2615399;36;20407;-50
2022/04/19 00:40:32;;;;;;;;;;;;;;;6.83;100.00;101510.81;2615358;36;19985;-53
2022/04/19 00:43:00;;;;;;;;;;;;;;;6.82;100.00;101511.78;2615253;36;20038;-54
2022/04/19 00:45:31;;;;;;;;;;;;;;;6.81;100.00;101517.22;2615533;36;20045;-50
2022/04/19 00:47:59;;;;;;;;;;;;;;;6.86;100.00;101517.81;2615446;36;20006;-55
2022/04/19 00:50:27;;;;;;;;;;;;;;;6.87;100.00;101516.81;2615115;31;20465;-49
2022/04/19 00:52:58;;;;;;;;;;;;;;;6.84;100.00;101522.38;2615134;36;19970;-49
2022/04/19 00:55:26;;;;;;;;;;;;;;;6.80;100.00;101518.16;2615941;36;20073;-50
2022/04/19 00:57:54;;;;;;;;;;;;;;;6.83;100.00;101520.66;2615449;36;19942;-51
2022/04/19 01:00:22;;;;;;;;;;;;;;;6.79;100.00;101521.81;2614637;36;19993;-50
2022/04/19 01:02:50;;;;;;;;;;;;;;;6.78;100.00;101514.75;2615550;36;20055;-56
2022/04/19 01:05:19;;;;;;;;;;;;;;;6.83;100.00;101515.28;2615051;36;19939;-51
2022/04/19 01:07:48;;;;;;;;;;;;;;;6.86;100.00;101517.81;2615371;36;19946;-51
2022/04/19 01:10:18;;;;;;;;;;;;;;;6.75;100.00;101521.13;2615232;36;20091;-48
2022/04/19 01:15:28;;;;;;;;;;;;;;;6.69;100.00;101520.66;2615760;36;19946;-49
2022/04/19 01:17:56;;;;;;;;;;;;;;;6.67;100.00;101518.09;2614557;36;20050;-53
2022/04/19 01:20:24;;;;;;;;;;;;;;;6.62;100.00;101518.34;2614842;36;19967;-52
2022/04/19 01:22:55;;;;;;;;;;;;;;;6.61;100.00;101519.31;2615233;36;19994;-50
2022/04/19 01:25:23;;;;;;;;;;;;;;;6.57;100.00;101508.91;2615448;31;20404;-54
2022/04/19 01:27:51;;;;;;;;;;;;;;;6.61;100.00;101505.94;2615362;36;20038;-51
2022/04/19 01:30:21;;;;;;;;;;;;;;;6.75;100.00;101504.22;2615367;31;20469;-48
2022/04/19 01:32:49;;;;;;;;;;;;;;;6.91;100.00;101498.78;2615283;36;20041;-52
2022/04/19 01:35:18;;;;;;;;;;;;;;;6.93;100.00;101504.88;2615796;36;19958;-55
2022/04/19 01:37:46;;;;;;;;;;;;;;;7.02;100.00;101504.28;2616031;36;20001;-53
2022/04/19 01:40:20;;;;;;;;;;;;;;;7.10;100.00;101495.81;2615685;36;19950;-46
2022/04/19 01:42:49;;;;;;;;;;;;;;;7.14;100.00;101495.50;2615869;36;20090;-51
2022/04/19 01:45:17;;;;;;;;;;;;;;;7.18;100.00;101496.16;2615319;36;19954;-54
2022/04/19 01:47:45;;;;;;;;;;;;;;;7.34;100.00;101491.53;2615672;36;19950;-51
2022/04/19 01:50:14;;;;;;;;;;;;;;;7.51;100.00;101487.75;2615951;36;20030;-52
2022/04/19 01:52:44;;;;;;;;;;;;;;;7.53;100.00;101479.63;2614591;36;20470;-48
2022/04/19 01:55:14;;;;;;;;;;;;;;;7.42;100.00;101488.38;2615919;31;19959;-52
2022/04/19 01:57:45;;;;;;;;;;;;;;;7.37;100.00;101490.47;2616495;36;19974;-49
2022/04/19 02:00:14;;;;;;;;;;;;;;;7.29;100.00;101485.63;2615819;31;19986;-52
2022/04/19 02:02:43;;;;;;;;;;;;;;;7.24;100.00;101479.69;2615629;36;20094;-51
2022/04/19 02:05:12;;;;;;;;;;;;;;;7.21;100.00;101474.53;2614588;36;19973;-55
2022/04/19 02:07:40;;;;;;;;;;;;;;;7.13;100.00;101467.00;2615881;36;20060;-51
2022/04/19 02:10:09;;;;;;;;;;;;;;;7.07;100.00;101486.13;2616319;36;20026;-50
2022/04/19 02:12:38;;;;;;;;;;;;;;;7.02;100.00;101482.88;2615691;36;20092;-48
2022/04/19 02:15:10;;;;;;;;;;;;;;;6.97;100.00;101476.97;2615894;36;19943;-52
2022/04/19 02:17:44;;;;;;;;;;;;;;;6.94;100.00;101482.53;2615938;36;19955;-54
2022/04/19 02:20:13;;;;;;;;;;;;;;;6.90;100.00;101475.66;2615669;31;20519;-49
2022/04/19 02:22:41;;;;;;;;;;;;;;;6.86;100.00;101480.34;2615153;36;20044;-54
2022/04/19 02:25:11;;;;;;;;;;;;;;;6.81;100.00;101483.28;2616163;36;19946;-51
2022/04/19 02:27:40;;;;;;;;;;;;;;;6.77;100.00;101481.78;2616437;36;20022;-49
2022/04/19 02:30:13;;;;;;;;;;;;;;;6.70;100.00;101479.56;2615586;36;19954;-53
2022/04/19 02:32:41;;;;;;;;;;;;;;;6.67;100.00;101480.63;2615734;36;19958;-51
2022/04/19 02:35:09;;;;;;;;;;;;;;;6.58;100.00;101486.53;2615883;36;19942;-51
2022/04/19 02:37:38;;;;;;;;;;;;;;;6.53;100.00;101484.16;2615336;36;19953;-49
2022/04/19 02:40:07;;;;;;;;;;;;;;;6.48;100.00;101484.44;2615906;31;20347;-53
2022/04/19 02:42:36;;;;;;;;;;;;;;;6.41;100.00;101484.91;2615185;36;19979;-53
2022/04/19 02:45:05;;;;;;;;;;;;;;;6.37;100.00;101488.72;2615695;36;19946;-51
2022/04/19 02:47:36;;;;;;;;;;;;;;;6.29;100.00;101487.38;2615528;31;19950;-51
2022/04/19 02:50:05;;;;;;;;;;;;;;;6.25;100.00;101475.13;2615498;36;20007;-51
2022/04/19 02:52:33;;;;;;;;;;;;;;;6.19;100.00;101483.53;2615000;36;20440;-52
2022/04/19 02:55:01;;;;;;;;;;;;;;;6.11;100.00;101472.44;2615752;36;19985;-53
2022/04/19 02:57:29;;;;;;;;;;;;;;;6.08;100.00;101477.97;2615107;36;19954;-52
2022/04/19 02:59:57;;;;;;;;;;;;;;;6.05;100.00;101476.34;2616002;31;20001;-51
2022/04/19 03:02:26;;;;;;;;;;;;;;;6.05;100.00;101479.03;2615498;36;19954;-53
2022/04/19 03:04:57;;;;;;;;;;;;;;;6.01;100.00;101476.59;2615527;36;19951;-53
2022/04/19 03:07:25;;;;;;;;;;;;;;;5.96;100.00;101477.72;2615601;36;20001;-50
2022/04/19 03:09:53;;;;;;;;;;;;;;;5.93;100.00;101475.25;2615964;31;19973;-46
2022/04/19 03:12:21;;;;;;;;;;;;;;;5.92;100.00;101481.53;2615552;36;20038;-50
2022/04/19 03:14:49;;;;;;;;;;;;;;;5.89;100.00;101479.03;2619606;31;19957;-50
2022/04/19 03:17:17;;;;;;;;;;;;;;;5.83;100.00;101478.53;2615658;36;19947;-50
2022/04/19 03:19:45;;;;;;;;;;;;;;;5.75;100.00;101477.16;2616204;36;20442;-53
2022/04/19 03:22:16;;;;;;;;;;;;;;;5.73;100.00;101480.91;2615158;36;20004;-50
2022/04/19 03:30:05;;;;;;;;;;;;;;;5.52;100.00;101480.31;2616161;36;20312;-52
2022/04/19 03:32:33;;;;;;;;;;;;;;;5.51;100.00;101484.81;2615431;36;19946;-52
2022/04/19 03:35:01;;;;;;;;;;;;;;;5.52;100.00;101483.84;2616121;36;19954;-49
2022/04/19 03:37:33;;;;;;;;;;;;;;;5.55;100.00;101473.00;2615549;36;20435;-51
2022/04/19 03:40:01;;;;;;;;;;;;;;;5.58;100.00;101474.59;2615505;36;20001;-49
2022/04/19 03:42:29;;;;;;;;;;;;;;;5.52;100.00;101475.84;2615723;36;19958;-47
2022/04/19 03:44:56;;;;;;;;;;;;;;;5.43;100.00;101476.34;2616154;36;20439;-53
2022/04/19 03:47:25;;;;;;;;;;;;;;;5.40;100.00;101476.53;2615873;36;20002;-51
2022/04/19 03:49:53;;;;;;;;;;;;;;;5.35;100.00;101475.94;2615488;36;19946;-55
2022/04/19 03:52:21;;;;;;;;;;;;;;;5.32;100.00;101481.47;2615244;36;20450;-51
2022/04/19 03:54:52;;;;;;;;;;;;;;;5.31;100.00;101477.91;2615824;31;20464;-53
2022/04/19 03:57:21;;;;;;;;;;;;;;;5.25;100.00;101479.13;2616021;36;19970;-48
2022/04/19 03:59:49;;;;;;;;;;;;;;;5.25;100.00;101479.13;2615947;31;20448;-53
2022/04/19 04:02:17;;;;;;;;;;;;;;;5.18;100.00;101483.09;2614446;36;20022;-51
2022/04/19 04:04:45;;;;;;;;;;;;;;;5.15;100.00;101490.41;2614610;36;20449;-47
2022/04/19 04:07:13;;;;;;;;;;;;;;;5.10;100.00;101485.31;2608230;36;19950;-54
2022/04/19 04:09:41;;;;;;;;;;;;;;;5.07;100.00;101490.84;2616017;36;20458;-49
2022/04/19 04:12:12;;;;;;;;;;;;;;;5.04;100.00;101489.19;2615295;31;20462;-53
2022/04/19 04:14:41;;;;;;;;;;;;;;;5.05;100.00;101492.72;2615958;36;19969;-47
2022/04/19 04:17:09;;;;;;;;;;;;;;;5.06;100.00;101484.66;2615780;36;19955;-48
2022/04/19 04:19:37;;;;;;;;;;;;;;;5.00;100.00;101484.13;2615685;31;20075;-50
2022/04/19 04:22:06;;;;;;;;;;;;;;;4.99;100.00;101482.38;2615204;31;20411;-50
2022/04/19 04:24:34;;;;;;;;;;;;;;;4.99;100.00;101483.25;2615706;36;20474;-48
2022/04/19 04:27:02;;;;;;;;;;;;;;;5.02;100.00;101495.53;2615625;36;20416;-52
2022/04/19 04:29:32;;;;;;;;;;;;;;;4.99;100.00;101482.38;2615668;36;20581;-47
2022/04/19 04:32:00;;;;;;;;;;;;;;;5.00;100.00;101490.28;2615780;36;19947;-49
2022/04/19 04:34:31;;;;;;;;;;;;;;;5.00;100.00;101490.28;2615661;36;20034;-49
2022/04/19 04:36:59;;;;;;;;;;;;;;;4.99;100.00;101503.72;2614927;31;19973;-51
2022/04/19 04:39:27;;;;;;;;;;;;;;;4.98;100.00;101496.69;2616097;36;20061;-51
2022/04/19 04:41:55;;;;;;;;;;;;;;;4.98;100.00;101494.88;2615356;36;20030;-51
2022/04/19 04:44:23;;;;;;;;;;;;;;;4.97;100.00;101506.47;2615292;36;19954;-50
2022/04/19 04:49:40;;;;;;;;;;;;;;;4.94;100.00;101498.66;2614432;36;19951;-54
2022/04/19 04:52:10;;;;;;;;;;;;;;;4.91;100.00;101506.81;2614726;31;19947;-48
2022/04/19 04:54:38;;;;;;;;;;;;;;;4.93;100.00;101506.72;2615906;36;19938;-49
2022/04/19 04:57:07;;;;;;;;;;;;;;;4.95;100.00;101512.84;2614829;36;20496;-49
2022/04/19 04:59:35;;;;;;;;;;;;;;;4.99;100.00;101511.72;2615317;36;20002;-50
2022/04/19 05:02:06;;;;;;;;;;;;;;;5.02;100.00;101506.22;2614883;36;20086;-53
2022/04/19 05:04:35;;;;;;;;;;;;;;;5.07;100.00;101517.53;2615712;36;19946;-51
2022/04/19 05:07:04;;;;;;;;;;;;;;;5.07;100.00;101518.38;2613996;36;19950;-49
2022/04/19 05:09:32;;;;;;;;;;;;;;;5.15;100.00;101517.94;2615318;36;19950;-50
2022/04/19 05:12:00;;;;;;;;;;;;;;;5.22;100.00;101515.81;2615103;36;19947;-50
2022/04/19 05:14:28;;;;;;;;;;;;;;;5.26;100.00;101518.22;2615616;36;20487;-48
2022/04/19 05:16:56;;;;;;;;;;;;;;;5.35;100.00;101508.84;2615515;36;20442;-49
2022/04/19 05:19:26;;;;;;;;;;;;;;;5.43;100.00;101513.72;2614925;31;20511;-53
2022/04/19 05:21:54;;;;;;;;;;;;;;;5.47;100.00;101509.94;2615173;36;19998;-51
2022/04/19 05:24:22;;;;;;;;;;;;;;;5.48;100.00;101506.34;2615806;36;20458;-49
2022/04/19 05:26:50;;;;;;;;;;;;;;;5.53;100.00;101514.09;2615388;36;20045;-49
2022/04/19 05:29:18;;;;;;;;;;;;;;;5.60;100.00;101510.97;2615344;36;20031;-52
2022/04/19 05:31:46;;;;;;;;;;;;;;;5.75;100.00;101514.56;2614127;31;20022;-52
2022/04/19 05:34:14;;;;;;;;;;;;;;;5.82;100.00;101507.06;2614716;36;20531;-52
2022/04/19 05:36:45;;;;;;;;;;;;;;;5.97;100.00;101510.69;2615340;36;20042;-52
2022/04/19 05:39:13;;;;;;;;;;;;;;;6.13;100.00;101508.81;2615441;36;20018;-50
2022/04/19 05:41:41;;;;;;;;;;;;;;;6.19;100.00;101512.94;2615522;36;20030;-51
2022/04/19 05:44:10;;;;;;;;;;;;;;;6.25;100.00;101504.53;2614860;36;19954;-51
2022/04/19 05:46:38;;;;;;;;;;;;;;;6.42;100.00;101505.31;2615077;36;20022;-52
2022/04/19 05:49:07;;;;;;;;;;;;;;;6.54;100.00;101512.63;2615252;36;19950;-53
2022/04/19 05:51:35;;;;;;;;;;;;;;;6.70;100.00;101507.19;2614549;36;20435;-54
2022/04/19 05:54:05;;;;;;;;;;;;;;;6.91;100.00;101504.13;2614865;36;20499;-53
2022/04/19 05:56:33;;;;;;;;;;;;;;;7.12;100.00;101507.25;2615570;36;20798;-52
2022/04/19 05:59:01;;;;;;;;;;;;;;;7.50;100.00;101503.94;2614385;36;19943;-54
2022/04/19 06:04:51;;;;;;;;;;;;;;;8.59;100.00;101509.97;2614776;36;20018;-51
2022/04/19 06:06:58;;;;;;;;;;;;;;;9.07;100.00;101511.16;2613651;36;19954;-52
2022/04/19 06:09:29;;;;;;;;;;;;;;;9.43;100.00;101514.81;2615771;36;20363;-50
2022/04/19 06:11:58;;;;;;;;;;;;;;;9.49;100.00;101518.88;2615168;36;20083;-54
2022/04/19 06:14:26;;;;;;;;;;;;;;;9.42;100.00;101522.03;2615473;36;19947;-53
2022/04/19 06:16:54;;;;;;;;;;;;;;;9.62;100.00;101514.31;2614988;36;20045;-51
2022/04/19 06:19:22;;;;;;;;;;;;;;;9.65;100.00;101514.91;2614848;36;19983;-51
2022/04/19 06:21:50;;;;;;;;;;;;;;;10.05;100.00;101516.44;2614477;36;19954;-50
2022/04/19 06:24:18;;;;;;;;;;;;;;;10.46;100.00;101515.13;2584363;31;19958;-54
2022/04/19 06:26:49;;;;;;;;;;;;;;;10.52;100.00;101521.88;2614186;36;20141;-52
2022/04/19 06:29:17;;;;;;;;;;;;;;;10.87;100.00;101515.56;2615732;36;20029;-53
2022/04/19 06:31:45;;;;;;;;;;;;;;;11.09;100.00;101516.53;2614678;36;20074;-54
2022/04/19 06:34:13;;;;;;;;;;;;;;;11.08;100.00;101512.97;2613932;36;19957;-53
2022/04/19 06:36:41;;;;;;;;;;;;;;;11.36;100.00;101518.81;2611826;36;20718;-55
2022/04/19 06:39:09;;;;;;;;;;;;;;;11.46;100.00;101514.41;2614604;36;20018;-52
2022/04/19 06:41:37;;;;;;;;;;;;;;;11.51;100.00;101520.28;2615723;36;20602;-51
2022/04/19 06:44:08;;;;;;;;;;;;;;;11.56;99.02;101526.13;2614864;36;20464;-53
2022/04/19 06:46:36;;;;;;;;;;;;;;;11.55;100.00;101521.72;2613604;36;19954;-54
2022/04/19 06:49:05;;;;;;;;;;;;;;;11.65;100.00;101519.13;2614802;36;19969;-54
2022/04/19 06:51:34;;;;;;;;;;;;;;;11.79;100.00;101522.53;2614554;31;20580;-52
2022/04/19 06:54:02;;;;;;;;;;;;;;;11.82;100.00;101527.66;2614166;36;20075;-50
2022/04/19 06:56:30;;;;;;;;;;;;;;;11.85;100.00;101527.41;2612332;36;20054;-51
2022/04/19 06:58:59;;;;;;;;;;;;;;;12.05;100.00;101528.47;2614617;36;19971;-57
2022/04/19 07:01:32;;;;;;;;;;;;;;;12.19;98.48;101525.47;2614196;36;20455;-54
2022/04/19 07:04:01;;;;;;;;;;;;;;;12.32;94.20;101525.25;2613540;36;19957;-53
2022/04/19 07:06:29;;;;;;;;;;;;;;;12.59;98.30;101522.03;2614332;36;20347;-52
2022/04/19 07:08:57;;;;;;;;;;;;;;;12.62;96.57;101519.06;2614828;36;19957;-51
2022/04/19 07:11:25;;;;;;;;;;;;;;;12.65;94.93;101519.78;2614629;36;19958;-55
2022/04/19 07:13:53;;;;;;;;;;;;;;;12.65;92.50;101523.34;2614480;36;20351;-52
2022/04/19 07:16:21;;;;;;;;;;;;;;;13.06;93.46;101523.38;2612826;36;20050;-55
2022/04/19 07:18:52;;;;;;;;;;;;;;;13.16;93.45;101524.28;2612839;36;19958;-56
2022/04/19 07:26:41;;;;;;;;;;;;;;;13.49;94.72;101530.41;2613209;36;20026;-52
2022/04/19 07:29:11;;;;;;;;;;;;;;;13.70;97.81;101529.44;2611885;36;19983;-56
2022/04/19 07:31:39;;;;;;;;;;;;;;;13.61;93.31;101528.44;2606257;31;19974;-55
2022/04/19 07:34:10;;;;;;;;;;;;;;;13.70;100.00;101533.00;2614808;36;20026;-51
2022/04/19 07:36:39;;;;;;;;;;;;;;;13.83;93.00;101530.88;2614959;36;20032;-51
2022/04/19 07:39:08;;;;;;;;;;;;;;;13.83;97.44;101530.88;2613388;36;19966;-54
2022/04/19 07:41:37;;;;;;;;;;;;;;;14.14;86.55;101538.00;2613698;36;20058;-54
2022/04/19 07:44:05;;;;;;;;;;;;;;;14.29;84.21;101535.72;2613877;36;21242;-55
2022/04/19 07:46:33;;;;;;;;;;;;;;;14.28;79.98;101534.88;2614266;36;20026;-50
2022/04/19 07:49:02;;;;;;;;;;;;;;;14.41;85.42;101541.84;2614105;36;19989;-52
2022/04/19 07:51:34;;;;;;;;;;;;;;;14.58;81.22;101541.09;2614151;36;19947;-53
2022/04/19 07:54:03;;;;;;;;;;;;;;;14.75;78.16;101533.25;2614240;36;19946;-53
2022/04/19 07:56:31;;;;;;;;;;;;;;;14.69;75.01;101530.13;2612207;31;20079;-52
2022/04/19 07:58:59;;;;;;;;;;;;;;;14.93;69.90;101534.19;2614481;36;20045;-55
2022/04/19 08:01:27;;;;;;;;;;;;;;;14.98;67.61;101534.59;2613984;36;20014;-51
2022/04/19 08:03:55;;;;;;;;;;;;;;;15.02;65.61;101535.16;2614937;36;20626;-57
2022/04/19 08:06:23;;;;;;;;;;;;;;;15.06;66.31;101539.25;2614372;36;20558;-53
2022/04/19 08:08:54;;;;;;;;;;;;;;;15.00;69.01;101538.03;2615452;36;19977;-54
2022/04/19 08:11:22;;;;;;;;;;;;;;;15.26;70.65;101531.91;2614878;36;20446;-50
2022/04/19 08:13:49;;;;;;;;;;;;;;;15.32;68.66;101535.88;2614553;36;19946;-55
2022/04/19 08:16:21;;;;;;;;;;;;;;;15.45;63.21;101533.66;2614387;36;20082;-56
2022/04/19 08:18:49;;;;;;;;;;;;;;;15.58;63.62;101536.88;2614682;36;19946;-54
2022/04/19 08:21:17;;;;;;;;;;;;;;;15.73;65.03;101534.47;2613778;36;20001;-54
2022/04/19 08:23:45;;;;;;;;;;;;;;;15.71;64.97;101530.22;2612982;36;20083;-54
2022/04/19 08:26:16;;;;;;;;;;;;;;;15.95;60.87;101529.63;2614771;36;19962;-53
2022/04/19 08:28:44;;;;;;;;;;;;;;;16.14;60.03;101530.50;2614666;36;20119;-54
2022/04/19 08:31:12;;;;;;;;;;;;;;;15.99;61.96;101532.88;2607715;36;19973;-54
2022/04/19 08:33:40;;;;;;;;;;;;;;;16.13;58.50;101531.50;2614705;36;20479;-54
2022/04/19 08:36:09;;;;;;;;;;;;;;;16.25;59.45;101527.53;2613681;36;20499;-54
2022/04/19 08:38:37;;;;;;;;;;;;;;;16.48;58.17;101533.31;2608581;36;20462;-54
2022/04/19 08:41:06;;;;;;;;;;;;;;;16.43;57.04;101531.06;2614122;36;19963;-54
2022/04/19 08:43:38;;;;;;;;;;;;;;;16.54;57.10;101529.13;2615168;36;20372;-57
2022/04/19 08:46:06;;;;;;;;;;;;;;;16.63;56.48;101520.84;2614079;36;19950;-51
2022/04/19 08:48:38;;;;;;;;;;;;;;;16.63;56.19;101530.88;2613653;36;19951;-55
2022/04/19 08:51:07;;;;;;;;;;;;;;;16.65;62.19;101531.53;2613539;36;20017;-53
2022/04/19 08:59:03;;;;;;;;;;;;;;;16.94;56.90;101522.25;2613142;36;19951;-53
2022/04/19 09:01:32;;;;;;;;;;;;;;;17.12;55.77;101531.19;2613523;31;20343;-52
2022/04/19 09:04:04;;;;;;;;;;;;;;;17.05;56.67;101524.69;2612592;31;20419;-52
2022/04/19 09:06:47;;;;;;;;;;;;;;;17.31;57.26;101534.66;2614026;36;20324;-55
2022/04/19 09:09:15;;;;;;;;;;;;;;;17.56;56.96;101527.41;2611015;36;20045;-51
2022/04/19 09:11:46;;;;;;;;;;;;;;;17.65;56.35;101531.03;2612652;36;20033;-54
2022/04/19 09:14:17;;;;;;;;;;;;;;;17.54;55.00;101529.47;2614927;31;20421;-51
2022/04/19 09:16:45;;;;;;;;;;;;;;;17.24;55.43;101530.88;2612923;36;19969;-56
2022/04/19 09:19:19;;;;;;;;;;;;;;;17.37;56.51;101528.56;2614249;36;19950;-51
2022/04/19 09:21:47;;;;;;;;;;;;;;;17.58;53.44;101524.53;2611997;31;19946;-54
2022/04/19 09:24:19;;;;;;;;;;;;;;;17.38;54.01;101530.25;2613577;31;19954;-52
2022/04/19 09:26:48;;;;;;;;;;;;;;;17.39;52.39;101520.22;2615239;31;20327;-53
2022/04/19 09:29:22;;;;;;;;;;;;;;;17.42;52.39;101518.03;2612485;36;20121;-54
2022/04/19 09:31:51;;;;;;;;;;;;;;;17.63;56.28;101527.63;2612696;31;19938;-56
2022/04/19 09:34:30;;;;;;;;;;;;;;;17.71;55.73;101515.91;2613368;36;20041;-52
2022/04/19 09:37:10;;;;;;;;;;;;;;;17.71;51.21;101518.63;2607103;36;19951;-53
2022/04/19 09:39:38;;;;;;;;;;;;;;;17.82;54.95;101513.69;2612824;36;19973;-58
2022/04/19 09:42:07;;;;;;;;;;;;;;;17.94;51.29;101502.53;2615305;36;19977;-56
2022/04/19 09:44:41;;;;;;;;;;;;;;;17.98;49.73;101506.63;2612632;36;19981;-53
2022/04/19 09:47:10;;;;;;;;;;;;;;;17.72;50.02;101510.28;2607014;36;20050;-57
2022/04/19 09:49:49;;;;;;;;;;;;;;;17.99;52.50;101502.84;2613083;36;19947;-56
2022/04/19 09:52:18;;;;;;;;;;;;;;;18.21;53.23;101498.59;2610246;31;19943;-51
2022/04/19 09:54:46;;;;;;;;;;;;;;;17.81;53.39;101492.94;2612513;36;20090;-51
2022/04/19 09:57:14;;;;;;;;;;;;;;;18.00;54.52;101501.84;2614208;36;19958;-53
2022/04/19 09:59:48;;;;;;;;;;;;;;;18.10;55.69;101491.63;2613369;36;19946;-56
2022/04/19 10:10:18;;;;;;;;;;;;;;;18.26;51.88;101496.22;2611610;36;19973;-55
2022/04/19 10:12:46;;;;;;;;;;;;;;;17.99;50.58;101487.38;2612042;36;19946;-52
2022/04/19 10:15:17;;;;;;;;;;;;;;;18.02;52.45;101499.78;2612196;36;20463;-55
2022/04/19 10:17:45;;;;;;;;;;;;;;;17.77;53.62;101474.38;2614623;36;20466;-54
2022/04/19 10:20:15;;;;;;;;;;;;;;;17.84;51.63;101469.97;2614041;36;20488;-49
2022/04/19 10:22:47;;;;;;;;;;;;;;;17.94;52.59;101478.00;2615542;31;19950;-56
2022/04/19 10:25:15;;;;;;;;;;;;;;;17.97;54.20;101474.94;2615277;36;20795;-55
2022/04/19 10:27:44;;;;;;;;;;;;;;;17.88;54.95;101474.06;2615075;36;19946;-55
2022/04/19 10:30:17;;;;;;;;;;;;;;;18.05;54.19;101472.25;2615018;36;20050;-55
2022/04/19 10:32:48;;;;;;;;;;;;;;;17.94;55.24;101472.56;2615366;36;20005;-52
2022/04/19 10:35:16;;;;;;;;;;;;;;;17.97;54.94;101480.41;2614726;36;20006;-54
2022/04/19 10:37:45;;;;;;;;;;;;;;;17.98;55.80;101471.22;2614448;36;19959;-52
2022/04/19 10:40:14;;;;;;;;;;;;;;;17.81;55.21;101476.59;2615855;36;20340;-49
2022/04/19 10:42:43;;;;;;;;;;;;;;;17.65;54.58;101476.56;2615921;36;20597;-53
2022/04/19 10:45:25;;;;;;;;;;;;;;;18.17;56.43;101481.75;2606968;36;19996;-52
2022/04/19 10:48:12;;;;;;;;;;;;;;;18.28;53.97;101488.72;2608753;36;19938;-55
2022/04/19 10:50:44;;;;;;;;;;;;;;;18.21;53.10;101483.13;2616456;36;20370;-53
2022/04/19 10:53:12;;;;;;;;;;;;;;;18.27;54.09;101480.72;2614390;36;19947;-52
2022/04/19 10:55:41;;;;;;;;;;;;;;;18.09;53.98;101480.91;2615570;36;19950;-56
2022/04/19 10:58:20;;;;;;;;;;;;;;;18.02;54.95;101483.44;2616550;36;19939;-52
2022/04/19 11:00:54;;;;;;;;;;;;;;;17.83;54.86;101469.13;2615984;31;19947;-54
2022/04/19 11:03:46;;;;;;;;;;;;;;;18.10;55.18;101480.72;2610622;36;19954;-56
2022/04/19 11:06:31;;;;;;;;;;;;;;;18.24;53.38;101470.16;2611851;36;19950;-55
2022/04/19 11:09:10;;;;;;;;;;;;;;;18.13;52.66;101477.66;2613711;36;19951;-55
2022/04/19 11:11:51;;;;;;;;;;;;;;;18.24;52.66;101464.72;2614360;36;20380;-52
2022/04/19 11:14:37;;;;;;;;;;;;;;;17.99;53.51;101472.88;2614181;31;20316;-51
2022/04/19 11:17:20;;;;;;;;;;;;;;;18.06;52.70;101473.91;2614894;36;19989;-53
2022/04/19 11:19:53;;;;;;;;;;;;;;;18.37;53.72;101486.84;2614531;36;20655;-58
2022/04/19 11:22:29;;;;;;;;;;;;;;;18.48;54.93;101472.88;2613424;36;20358;-52
2022/04/19 11:25:07;;;;;;;;;;;;;;;18.94;53.42;101463.22;2615616;31;19942;-56
2022/04/19 11:27:50;;;;;;;;;;;;;;;18.93;53.84;101470.53;2615766;36;20347;-51
2022/04/19 11:30:18;;;;;;;;;;;;;;;19.00;50.92;101459.78;2613715;36;20354;-54
2022/04/19 11:32:51;;;;;;;;;;;;;;;18.77;50.66;101471.44;2614717;36;19958;-55
2022/04/19 11:35:20;;;;;;;;;;;;;;;18.66;51.68;101452.72;2615464;36;20063;-54
2022/04/19 11:37:48;;;;;;;;;;;;;;;18.59;51.84;101459.88;2613615;36;19973;-55
2022/04/19 11:48:28;;;;;;;;;;;;;;;18.88;53.01;101457.44;2608928;36;19977;-53
2022/04/19 11:51:07;;;;;;;;;;;;;;;18.72;53.69;101452.00;2612881;36;20451;-58
2022/04/19 11:53:36;;;;;;;;;;;;;;;18.75;53.78;101451.66;2614591;36;19946;-54
2022/04/19 11:56:07;;;;;;;;;;;;;;;18.99;54.56;101447.16;2614924;31;20522;-58
2022/04/19 11:58:36;;;;;;;;;;;;;;;18.99;56.32;101452.63;2615744;36;19957;-52
2022/04/19 12:01:06;;;;;;;;;;;;;;;18.85;54.38;101441.38;2614863;36;20149;-56
2022/04/19 12:03:36;;;;;;;;;;;;;;;18.90;55.36;101444.50;2615351;36;19973;-54
2022/04/19 12:06:08;;;;;;;;;;;;;;;19.16;54.91;101437.88;2614722;31;19950;-54
2022/04/19 12:08:37;;;;;;;;;;;;;;;19.54;56.75;101439.88;2613903;36;20236;-54
2022/04/19 12:11:09;;;;;;;;;;;;;;;19.03;55.38;101440.31;2614080;36;20643;-55
2022/04/19 12:13:37;;;;;;;;;;;;;;;18.76;56.81;101438.84;2615200;36;19950;-56
2022/04/19 12:16:08;;;;;;;;;;;;;;;19.00;57.44;101449.72;2615255;36;20091;-56
2022/04/19 12:18:38;;;;;;;;;;;;;;;18.98;57.15;101445.47;2613020;36;20475;-49
2022/04/19 12:21:07;;;;;;;;;;;;;;;18.86;56.81;101443.13;2614301;36;19977;-56
2022/04/19 12:23:35;;;;;;;;;;;;;;;18.81;55.91;101450.94;2613939;36;20460;-55
2022/04/19 12:26:04;;;;;;;;;;;;;;;18.80;56.55;101438.34;2614750;36;20320;-53
2022/04/19 12:28:39;;;;;;;;;;;;;;;18.62;56.85;101446.75;2614241;31;20428;-53
2022/04/19 12:31:07;;;;;;;;;;;;;;;18.34;57.04;101438.13;2614204;31;20654;-52
2022/04/19 12:33:37;;;;;;;;;;;;;;;18.65;56.03;101440.94;2614299;36;20466;-55
2022/04/19 12:36:13;;;;;;;;;;;;;;;18.80;55.91;101441.09;2615274;36;19958;-53
2022/04/19 12:38:41;;;;;;;;;;;;;;;18.72;55.21;101447.41;2614220;36;20106;-54
2022/04/19 12:41:16;;;;;;;;;;;;;;;18.91;57.26;101451.63;2614261;36;20070;-58
2022/04/19 12:43:47;;;;;;;;;;;;;;;18.72;54.76;101441.09;2614389;36;19983;-57
2022/04/19 12:46:16;;;;;;;;;;;;;;;18.84;54.99;101441.56;2614671;36;19950;-56
2022/04/19 12:48:54;;;;;;;;;;;;;;;18.79;54.39;101442.09;2613576;36;19950;-52
2022/04/19 12:51:26;;;;;;;;;;;;;;;19.21;53.95;101430.00;2608705;36;19954;-56
2022/04/19 12:54:04;;;;;;;;;;;;;;;19.29;52.09;101436.44;2615289;36;19953;-53
2022/04/19 12:56:32;;;;;;;;;;;;;;;18.70;51.34;101426.81;2615591;36;19950;-55
2022/04/19 12:59:03;;;;;;;;;;;;;;;18.56;50.34;101433.81;2614269;36;20355;-57
2022/04/19 13:01:31;;;;;;;;;;;;;;;18.85;52.18;101430.47;2608869;36;19974;-54
2022/04/19 13:03:59;;;;;;;;;;;;;;;18.94;51.33;101419.59;2612943;31;20038;-55
2022/04/19 13:14:31;;;;;;;;;;;;;;;19.33;47.06;101421.41;2612060;36;19950;-56
2022/04/19 13:16:59;;;;;;;;;;;;;;;19.57;48.38;101410.31;2613297;36;20034;-54
2022/04/19 13:19:27;;;;;;;;;;;;;;;19.76;46.42;101411.69;2611992;36;20055;-54
2022/04/19 13:21:55;;;;;;;;;;;;;;;19.69;45.86;101415.34;2612224;36;19957;-52
2022/04/19 13:24:23;;;;;;;;;;;;;;;19.08;46.80;101413.38;2611868;36;19955;-54
2022/04/19 13:26:51;;;;;;;;;;;;;;;19.28;47.30;101404.72;2612854;36;19950;-54
2022/04/19 13:29:20;;;;;;;;;;;;;;;19.52;47.15;101411.88;2614706;31;20439;-57
2022/04/19 13:31:52;;;;;;;;;;;;;;;19.43;46.78;101402.91;2613944;31;20018;-55
2022/04/19 13:34:21;;;;;;;;;;;;;;;19.69;46.25;101401.69;2615564;31;19973;-54
2022/04/19 13:36:49;;;;;;;;;;;;;;;19.55;44.98;101393.28;2613835;36;19957;-54